createdAt,value
2022-11-04T00:00:52.831Z,98339.38
2022-11-04T00:01:55.925Z,98348.72
2022-11-04T00:02:58.393Z,98346.56
2022-11-04T00:04:00.651Z,98341.88
2022-11-04T00:05:02.961Z,98351.41
2022-11-04T00:06:05.213Z,98351.00
2022-11-04T00:07:27.355Z,98354.44
2022-11-04T00:08:29.881Z,98358.75
2022-11-04T00:09:32.009Z,98356.69
2022-11-04T00:10:52.572Z,98359.41
2022-11-04T00:12:15.134Z,98352.53
2022-11-04T00:13:17.293Z,98353.97
2022-11-04T00:14:20.219Z,98357.81
2022-11-04T00:15:40.708Z,98357.16
2022-11-04T00:17:01.761Z,98362.03
2022-11-04T00:18:03.905Z,98350.59
2022-11-04T00:19:06.161Z,98354.25
2022-11-04T00:20:27.005Z,98357.06
2022-11-04T00:21:48.016Z,98347.38
2022-11-04T00:23:08.788Z,98356.69
2022-11-04T00:24:50.332Z,98367.47
2022-11-04T00:26:10.976Z,98365.69
2022-11-04T00:27:34.000Z,98373.94
2022-11-04T00:28:45.171Z,98374.88
2022-11-04T00:29:47.380Z,98379.84
2022-11-04T00:30:53.621Z,98376.66
2022-11-04T00:32:14.161Z,98383.75
2022-11-04T00:33:28.246Z,98388.00
2022-11-04T00:34:30.397Z,98391.38
2022-11-04T00:35:32.532Z,98394.16
2022-11-04T00:36:34.769Z,98402.53
2022-11-04T00:37:41.433Z,98393.75
2022-11-04T00:38:44.266Z,98397.66
2022-11-04T00:39:46.438Z,98402.41
2022-11-04T00:40:48.604Z,98400.03
2022-11-04T00:41:50.881Z,98402.66
2022-11-04T00:42:53.112Z,98407.50
2022-11-04T00:44:00.980Z,98408.59
2022-11-04T00:45:03.803Z,98412.16
2022-11-04T00:46:06.046Z,98410.22
2022-11-04T00:47:08.441Z,98415.25
2022-11-04T00:48:11.024Z,98410.13
2022-11-04T00:49:13.642Z,98398.84
2022-11-04T00:50:15.984Z,98407.66
2022-11-04T00:51:18.145Z,98401.72
2022-11-04T00:52:20.494Z,98400.03
2022-11-04T00:53:22.647Z,98408.94
2022-11-04T00:54:24.805Z,98405.97
2022-11-04T00:55:27.421Z,98417.81
2022-11-04T00:56:29.743Z,98402.91
2022-11-04T00:57:32.080Z,98407.22
2022-11-04T00:58:34.497Z,98410.38
2022-11-04T00:59:36.812Z,98407.84
2022-11-04T01:00:38.994Z,98404.63
2022-11-04T01:01:41.715Z,98406.66
2022-11-04T01:02:44.143Z,98411.16
2022-11-04T01:03:50.512Z,98410.06
2022-11-04T01:04:52.680Z,98405.47
2022-11-04T01:05:58.268Z,98407.44
2022-11-04T01:07:01.217Z,98411.25
2022-11-04T01:08:03.464Z,98404.31
2022-11-04T01:09:10.609Z,98404.47
2022-11-04T01:10:13.021Z,98406.06
2022-11-04T01:11:16.333Z,98409.47
2022-11-04T01:12:18.488Z,98409.38
2022-11-04T01:13:20.650Z,98411.66
2022-11-04T01:14:23.228Z,98416.66
2022-11-04T01:15:25.363Z,98419.97
2022-11-04T01:17:35.607Z,98416.84
2022-11-04T01:18:38.437Z,98414.09
2022-11-04T01:19:40.616Z,98412.84
2022-11-04T01:20:42.748Z,98405.25
2022-11-04T01:21:44.922Z,98406.84
2022-11-04T01:22:47.112Z,98410.56
2022-11-04T01:23:49.265Z,98416.84
2022-11-04T01:24:51.505Z,98421.06
2022-11-04T01:25:53.684Z,98415.31
2022-11-04T01:26:55.845Z,98418.78
2022-11-04T01:27:58.091Z,98413.63
2022-11-04T01:29:00.396Z,98415.75
2022-11-04T01:30:02.550Z,98417.59
2022-11-04T01:31:28.776Z,98413.63
2022-11-04T01:32:30.921Z,98407.75
2022-11-04T01:33:33.250Z,98417.94
2022-11-04T01:34:40.607Z,98408.44
2022-11-04T01:35:45.769Z,98412.44
2022-11-04T01:36:47.897Z,98399.88
2022-11-04T01:37:50.065Z,98398.28
2022-11-04T01:38:52.493Z,98403.81
2022-11-04T01:39:54.717Z,98408.00
2022-11-04T01:40:56.928Z,98408.16
2022-11-04T01:41:59.130Z,98416.16
2022-11-04T01:43:01.362Z,98413.19
2022-11-04T01:44:24.797Z,98411.97
2022-11-04T01:45:27.279Z,98407.84
2022-11-04T01:46:32.778Z,98420.28
2022-11-04T01:47:37.298Z,98433.13
2022-11-04T01:48:39.526Z,98421.06
2022-11-04T01:49:43.692Z,98419.03
2022-11-04T01:50:46.462Z,98419.97
2022-11-04T01:51:51.458Z,98409.09
2022-11-04T01:53:02.824Z,98416.06
2022-11-04T01:54:06.666Z,98416.84
2022-11-04T01:55:16.084Z,98421.16
2022-11-04T01:56:20.303Z,98412.72
2022-11-04T01:57:33.271Z,98409.22
2022-11-04T01:58:35.493Z,98401.69
2022-11-04T01:59:40.863Z,98405.28
2022-11-04T02:00:44.122Z,98413.44
2022-11-04T02:01:46.958Z,98413.06
2022-11-04T02:03:09.916Z,98403.69
2022-11-04T02:04:26.330Z,98416.47
2022-11-04T02:05:30.256Z,98405.81
2022-11-04T02:06:32.535Z,98411.06
2022-11-04T02:07:36.005Z,98406.81
2022-11-04T02:08:39.769Z,98409.53
2022-11-04T02:09:43.650Z,98412.34
2022-11-04T02:10:54.090Z,98397.16
2022-11-04T02:12:15.591Z,98399.22
2022-11-04T02:13:18.428Z,98402.09
2022-11-04T02:14:20.659Z,98402.09
2022-11-04T02:15:33.136Z,98403.97
2022-11-04T02:16:43.263Z,98407.84
2022-11-04T02:18:24.710Z,98402.59
2022-11-04T02:19:38.687Z,98395.47
2022-11-04T02:20:58.613Z,98390.16
2022-11-04T02:22:39.933Z,98387.19
2022-11-04T02:23:57.670Z,98396.41
2022-11-04T02:25:05.828Z,98393.38
2022-11-04T02:26:38.191Z,98395.41
2022-11-04T02:28:10.049Z,98394.78
2022-11-04T02:29:22.137Z,98393.44
2022-11-04T02:30:24.598Z,98392.09
2022-11-04T02:31:45.056Z,98389.88
2022-11-04T02:33:17.165Z,98379.63
2022-11-04T02:34:37.714Z,98382.84
2022-11-04T02:36:03.348Z,98393.75
2022-11-04T02:37:14.202Z,98405.59
2022-11-04T02:38:34.434Z,98407.88
2022-11-04T02:39:53.344Z,98408.31
2022-11-04T02:41:26.686Z,98409.84
2022-11-04T02:42:42.650Z,98407.03
2022-11-04T02:44:09.422Z,98399.38
2022-11-04T02:45:19.319Z,98401.41
2022-11-04T02:46:37.688Z,98391.81
2022-11-04T02:47:45.223Z,98395.28
2022-11-04T02:49:00.295Z,98377.09
2022-11-04T02:50:29.693Z,98367.47
2022-11-04T02:51:37.310Z,98363.63
2022-11-04T02:52:51.386Z,98391.81
2022-11-04T02:54:19.950Z,98395.66
2022-11-04T02:55:27.289Z,98392.25
2022-11-04T02:56:31.828Z,98398.75
2022-11-04T02:57:38.892Z,98394.66
2022-11-04T02:58:51.948Z,98390.47
2022-11-04T03:00:03.684Z,98387.22
2022-11-04T03:01:09.390Z,98393.41
2022-11-04T03:02:17.232Z,98390.94
2022-11-04T03:03:27.424Z,98380.38
2022-11-04T03:04:35.314Z,98412.66
2022-11-04T03:05:39.966Z,98408.59
2022-11-04T03:06:44.600Z,98415.38
2022-11-04T03:07:50.117Z,98411.25
2022-11-04T03:08:55.071Z,98415.81
2022-11-04T03:10:12.934Z,98404.50
2022-11-04T03:11:21.648Z,98403.31
2022-11-04T03:12:30.413Z,98404.47
2022-11-04T03:13:41.543Z,98408.03
2022-11-04T03:14:51.400Z,98414.72
2022-11-04T03:16:01.050Z,98420.56
2022-11-04T03:17:09.024Z,98418.03
2022-11-04T03:18:31.373Z,98413.84
2022-11-04T03:19:57.340Z,98420.06
2022-11-04T03:21:02.895Z,98404.28
2022-11-04T03:22:10.317Z,98409.59
2022-11-04T03:23:14.262Z,98400.44
2022-11-04T03:24:16.636Z,98410.28
2022-11-04T03:25:18.946Z,98423.56
2022-11-04T03:26:28.597Z,98433.38
2022-11-04T03:27:45.236Z,98437.22
2022-11-04T03:29:21.383Z,98442.56
2022-11-04T03:30:24.508Z,98442.41
2022-11-04T03:31:43.687Z,98428.16
2022-11-04T03:33:01.078Z,98424.59
2022-11-04T03:34:03.468Z,98425.31
2022-11-04T03:35:07.098Z,98420.38
2022-11-04T03:36:09.511Z,98424.72
2022-11-04T03:37:11.715Z,98420.34
2022-11-04T03:38:13.924Z,98417.38
2022-11-04T03:39:16.187Z,98420.78
2022-11-04T03:40:20.860Z,98425.22
2022-11-04T03:41:31.730Z,98427.06
2022-11-04T03:42:39.978Z,98436.97
2022-11-04T03:43:42.174Z,98444.81
2022-11-04T03:44:44.468Z,98455.78
2022-11-04T03:45:47.025Z,98458.13
2022-11-04T03:46:50.346Z,98457.41
2022-11-04T03:47:52.748Z,98460.34
2022-11-04T03:48:55.770Z,98461.75
2022-11-04T03:50:08.174Z,98467.72
2022-11-04T03:51:10.388Z,98470.28
2022-11-04T03:52:12.771Z,98466.50
2022-11-04T03:53:22.347Z,98464.97
2022-11-04T03:54:24.800Z,98457.03
2022-11-04T03:55:46.557Z,98466.59
2022-11-04T03:57:23.231Z,98476.69
2022-11-04T03:58:44.683Z,98480.63
2022-11-04T04:00:12.795Z,98481.38
2022-11-04T04:01:23.850Z,98475.84
2022-11-04T04:03:03.921Z,98477.06
2022-11-04T04:04:27.825Z,98459.84
2022-11-04T04:05:41.071Z,98471.09
2022-11-04T04:06:45.058Z,98465.34
2022-11-04T04:07:57.822Z,98469.28
2022-11-04T04:09:30.786Z,98461.34
2022-11-04T04:10:48.375Z,98453.41
2022-11-04T04:12:30.106Z,98453.81
2022-11-04T04:13:59.635Z,98443.03
2022-11-04T04:15:15.303Z,98440.13
2022-11-04T04:16:26.245Z,98435.69
2022-11-04T04:17:51.017Z,98437.00
2022-11-04T04:19:01.860Z,98432.97
2022-11-04T04:20:11.951Z,98436.16
2022-11-04T04:21:18.377Z,98439.78
2022-11-04T04:22:31.510Z,98444.72
2022-11-04T04:23:54.494Z,98440.00
2022-11-04T04:25:16.991Z,98441.91
2022-11-04T04:26:42.011Z,98438.94
2022-11-04T04:27:47.045Z,98439.03
2022-11-04T04:28:52.084Z,98433.47
2022-11-04T04:29:54.735Z,98435.00
2022-11-04T04:31:00.247Z,98418.59
2022-11-04T04:32:05.393Z,98426.69
2022-11-04T04:33:11.688Z,98429.38
2022-11-04T04:34:14.252Z,98433.00
2022-11-04T04:35:35.669Z,98436.69
2022-11-04T04:36:46.432Z,98433.00
2022-11-04T04:37:49.913Z,98429.38
2022-11-04T04:39:11.017Z,98434.53
2022-11-04T04:40:38.553Z,98428.28
2022-11-04T04:41:59.129Z,98432.91
2022-11-04T04:43:20.216Z,98434.31
2022-11-04T04:44:45.756Z,98434.44
2022-11-04T04:45:55.595Z,98437.41
2022-11-04T04:47:00.518Z,98429.53
2022-11-04T04:48:03.351Z,98437.09
2022-11-04T04:49:07.699Z,98439.53
2022-11-04T04:50:12.996Z,98434.94
2022-11-04T04:51:15.691Z,98428.53
2022-11-04T04:52:18.390Z,98428.38
2022-11-04T04:53:20.563Z,98432.63
2022-11-04T04:54:22.715Z,98429.00
2022-11-04T04:55:24.871Z,98418.59
2022-11-04T04:56:27.060Z,98419.28
2022-11-04T04:57:29.413Z,98424.78
2022-11-04T04:58:31.550Z,98425.53
2022-11-04T04:59:33.713Z,98433.47
2022-11-04T05:00:36.103Z,98431.22
2022-11-04T05:01:38.349Z,98435.38
2022-11-04T05:02:40.792Z,98430.00
2022-11-04T05:03:45.238Z,98419.59
2022-11-04T05:04:47.731Z,98429.78
2022-11-04T05:05:51.695Z,98422.78
2022-11-04T05:06:55.934Z,98426.22
2022-11-04T05:08:08.582Z,98430.38
2022-11-04T05:09:11.043Z,98429.16
2022-11-04T05:10:15.535Z,98417.06
2022-11-04T05:11:19.637Z,98422.16
2022-11-04T05:12:24.963Z,98412.50
2022-11-04T05:13:27.227Z,98416.06
2022-11-04T05:14:30.070Z,98402.81
2022-11-04T05:15:32.550Z,98397.03
2022-11-04T05:16:40.441Z,98395.25
2022-11-04T05:17:43.186Z,98406.66
2022-11-04T05:18:45.353Z,98397.94
2022-11-04T05:19:47.613Z,98396.19
2022-11-04T05:20:49.766Z,98395.41
2022-11-04T05:21:51.989Z,98393.63
2022-11-04T05:22:54.636Z,98395.09
2022-11-04T05:23:56.801Z,98395.25
2022-11-04T05:24:59.056Z,98390.16
2022-11-04T05:26:01.372Z,98390.41
2022-11-04T05:27:03.558Z,98384.34
2022-11-04T05:28:06.690Z,98381.88
2022-11-04T05:29:09.768Z,98382.97
2022-11-04T05:30:12.197Z,98384.28
2022-11-04T05:31:14.561Z,98378.44
2022-11-04T05:32:16.747Z,98391.03
2022-11-04T05:33:18.989Z,98384.97
2022-11-04T05:34:21.265Z,98379.03
2022-11-04T05:35:23.667Z,98384.41
2022-11-04T05:36:25.991Z,98389.47
2022-11-04T05:37:28.274Z,98387.31
2022-11-04T05:38:30.471Z,98385.91
2022-11-04T05:39:32.672Z,98394.50
2022-11-04T05:40:34.905Z,98397.25
2022-11-04T05:41:37.133Z,98389.81
2022-11-04T05:42:39.429Z,98392.50
2022-11-04T05:43:41.607Z,98399.97
2022-11-04T05:44:43.750Z,98395.34
2022-11-04T05:45:46.406Z,98401.50
2022-11-04T05:46:48.705Z,98395.06
2022-11-04T05:48:00.447Z,98405.47
2022-11-04T05:49:02.746Z,98411.31
2022-11-04T05:50:05.923Z,98409.75
2022-11-04T05:51:08.048Z,98418.88
2022-11-04T05:52:10.261Z,98421.91
2022-11-04T05:53:12.860Z,98430.38
2022-11-04T05:54:15.203Z,98418.00
2022-11-04T05:55:17.458Z,98431.69
2022-11-04T05:56:19.736Z,98432.28
2022-11-04T05:57:22.082Z,98421.38
2022-11-04T05:58:24.281Z,98420.16
2022-11-04T05:59:26.454Z,98428.63
2022-11-04T06:00:29.132Z,98422.25
2022-11-04T06:01:34.290Z,98424.72
2022-11-04T06:02:36.591Z,98414.88
2022-11-04T06:03:38.848Z,98415.81
2022-11-04T06:04:40.992Z,98423.53
2022-11-04T06:05:43.149Z,98421.75
2022-11-04T06:06:45.781Z,98423.28
2022-11-04T06:07:47.992Z,98424.91
2022-11-04T06:08:52.110Z,98417.53
2022-11-04T06:09:54.349Z,98420.75
2022-11-04T06:10:56.531Z,98417.34
2022-11-04T06:11:58.692Z,98423.31
2022-11-04T06:13:01.166Z,98416.06
2022-11-04T06:14:03.395Z,98412.66
2022-11-04T06:15:06.231Z,98408.28
2022-11-04T06:16:08.445Z,98400.56
2022-11-04T06:17:19.124Z,98409.28
2022-11-04T06:18:21.260Z,98404.78
2022-11-04T06:19:23.504Z,98397.19
2022-11-04T06:20:25.824Z,98398.19
2022-11-04T06:21:30.868Z,98397.81
2022-11-04T06:22:33.052Z,98401.22
2022-11-04T06:23:35.498Z,98413.00
2022-11-04T06:24:37.751Z,98413.44
2022-11-04T06:25:39.962Z,98421.03
2022-11-04T06:26:42.333Z,98409.03
2022-11-04T06:27:44.514Z,98413.50
2022-11-04T06:28:46.947Z,98414.44
2022-11-04T06:29:49.145Z,98416.63
2022-11-04T06:30:51.335Z,98414.34
2022-11-04T06:31:53.516Z,98405.34
2022-11-04T06:32:55.702Z,98408.44
2022-11-04T06:33:57.919Z,98412.72
2022-11-04T06:35:00.077Z,98426.59
2022-11-04T06:36:04.932Z,98430.28
2022-11-04T06:37:07.828Z,98430.28
2022-11-04T06:38:15.564Z,98419.72
2022-11-04T06:39:20.435Z,98428.50
2022-11-04T06:40:22.657Z,98423.97
2022-11-04T06:41:24.938Z,98426.28
2022-11-04T06:42:28.135Z,98428.69
2022-11-04T06:43:30.379Z,98413.66
2022-11-04T06:44:34.465Z,98418.63
2022-11-04T06:45:36.668Z,98424.31
2022-11-04T06:46:42.453Z,98426.19
2022-11-04T06:47:44.661Z,98432.28
2022-11-04T06:48:46.817Z,98425.72
2022-11-04T06:49:48.981Z,98433.50
2022-11-04T06:50:51.161Z,98438.88
2022-11-04T06:51:53.654Z,98436.97
2022-11-04T06:52:56.124Z,98437.91
2022-11-04T06:53:59.149Z,98442.13
2022-11-04T06:55:01.329Z,98445.25
2022-11-04T06:56:04.094Z,98449.66
2022-11-04T06:57:10.589Z,98446.97
2022-11-04T06:58:12.789Z,98443.81
2022-11-04T06:59:20.149Z,98444.38
2022-11-04T07:00:22.614Z,98448.63
2022-11-04T07:01:27.596Z,98450.16
2022-11-04T07:02:30.264Z,98440.63
2022-11-04T07:03:32.580Z,98445.06
2022-11-04T07:04:36.863Z,98440.63
2022-11-04T07:05:39.032Z,98445.00
2022-11-04T07:06:47.156Z,98436.53
2022-11-04T07:07:49.428Z,98444.00
2022-11-04T07:08:53.396Z,98441.09
2022-11-04T07:09:55.611Z,98446.25
2022-11-04T07:10:58.665Z,98440.97
2022-11-04T07:12:01.287Z,98448.03
2022-11-04T07:13:03.510Z,98448.88
2022-11-04T07:14:06.058Z,98445.19
2022-11-04T07:15:08.618Z,98458.91
2022-11-04T07:16:15.415Z,98450.91
2022-11-04T07:17:18.005Z,98452.91
2022-11-04T07:18:20.184Z,98455.44
2022-11-04T07:19:22.405Z,98459.22
2022-11-04T07:20:24.590Z,98453.03
2022-11-04T07:21:27.321Z,98448.56
2022-11-04T07:22:30.909Z,98456.13
2022-11-04T07:23:33.331Z,98449.44
2022-11-04T07:24:35.577Z,98463.31
2022-11-04T07:25:39.653Z,98452.66
2022-11-04T07:26:42.506Z,98453.91
2022-11-04T07:27:44.698Z,98453.13
2022-11-04T07:28:46.966Z,98454.81
2022-11-04T07:29:49.202Z,98452.19
2022-11-04T07:30:51.451Z,98446.66
2022-11-04T07:31:54.109Z,98446.19
2022-11-04T07:32:56.398Z,98441.56
2022-11-04T07:33:58.622Z,98436.13
2022-11-04T07:35:01.669Z,98435.63
2022-11-04T07:36:08.586Z,98431.84
2022-11-04T07:37:10.753Z,98429.06
2022-11-04T07:38:12.912Z,98434.63
2022-11-04T07:39:15.204Z,98424.47
2022-11-04T07:40:17.572Z,98427.53
2022-11-04T07:41:19.909Z,98419.28
2022-11-04T07:42:22.165Z,98418.06
2022-11-04T07:43:30.488Z,98427.44
2022-11-04T07:44:33.155Z,98421.19
2022-11-04T07:45:35.870Z,98430.66
2022-11-04T07:46:38.135Z,98420.03
2022-11-04T07:47:40.341Z,98423.44
2022-11-04T07:48:43.327Z,98425.31
2022-11-04T07:49:45.671Z,98424.75
2022-11-04T07:50:47.845Z,98417.63
2022-11-04T07:51:50.039Z,98420.59
2022-11-04T07:52:52.269Z,98421.03
2022-11-04T07:53:55.621Z,98418.34
2022-11-04T07:54:58.005Z,98424.72
2022-11-04T07:56:07.623Z,98421.91
2022-11-04T07:57:09.776Z,98427.16
2022-11-04T07:58:12.052Z,98419.50
2022-11-04T07:59:15.734Z,98419.34
2022-11-04T08:00:21.092Z,98417.59
2022-11-04T08:01:27.469Z,98413.03
2022-11-04T08:02:34.879Z,98411.94
2022-11-04T08:03:40.414Z,98415.91
2022-11-04T08:04:43.002Z,98414.91
2022-11-04T08:05:45.230Z,98415.84
2022-11-04T08:06:50.733Z,98410.50
2022-11-04T08:07:53.169Z,98409.72
2022-11-04T08:08:55.471Z,98406.00
2022-11-04T08:09:57.817Z,98408.97
2022-11-04T08:11:14.297Z,98395.22
2022-11-04T08:12:20.884Z,98401.06
2022-11-04T08:13:23.937Z,98399.66
2022-11-04T08:14:26.362Z,98405.69
2022-11-04T08:15:29.331Z,98393.75
2022-11-04T08:16:34.718Z,98402.66
2022-11-04T08:17:38.786Z,98391.06
2022-11-04T08:18:42.716Z,98393.69
2022-11-04T08:19:48.891Z,98394.19
2022-11-04T08:21:02.725Z,98394.28
2022-11-04T08:22:05.028Z,98387.66
2022-11-04T08:23:08.154Z,98396.06
2022-11-04T08:24:12.940Z,98392.44
2022-11-04T08:25:15.268Z,98392.28
2022-11-04T08:26:20.215Z,98391.22
2022-11-04T08:27:23.293Z,98393.50
2022-11-04T08:28:25.900Z,98394.19
2022-11-04T08:29:28.148Z,98399.38
2022-11-04T08:30:33.590Z,98393.56
2022-11-04T08:31:37.235Z,98396.31
2022-11-04T08:32:39.840Z,98390.81
2022-11-04T08:33:42.181Z,98386.75
2022-11-04T08:34:45.025Z,98394.72
2022-11-04T08:35:47.439Z,98392.16
2022-11-04T08:36:49.690Z,98396.00
2022-11-04T08:37:53.775Z,98393.69
2022-11-04T08:38:56.813Z,98403.59
2022-11-04T08:39:59.116Z,98394.78
2022-11-04T08:41:03.817Z,98392.31
2022-11-04T08:42:06.780Z,98383.19
2022-11-04T08:43:12.672Z,98383.47
2022-11-04T08:44:16.693Z,98384.31
2022-11-04T08:45:18.909Z,98389.13
2022-11-04T08:46:21.244Z,98386.00
2022-11-04T08:47:23.438Z,98382.13
2022-11-04T08:48:25.707Z,98388.72
2022-11-04T08:49:27.871Z,98388.09
2022-11-04T08:50:30.731Z,98392.94
2022-11-04T08:51:35.101Z,98385.22
2022-11-04T08:52:37.266Z,98395.66
2022-11-04T08:53:39.462Z,98388.97
2022-11-04T08:54:41.685Z,98393.44
2022-11-04T08:55:45.748Z,98399.00
2022-11-04T08:56:51.495Z,98395.50
2022-11-04T08:57:54.325Z,98402.53
2022-11-04T08:58:59.610Z,98405.41
2022-11-04T09:00:02.794Z,98400.22
2022-11-04T09:01:08.154Z,98390.50
2022-11-04T09:02:15.263Z,98398.94
2022-11-04T09:03:21.117Z,98397.81
2022-11-04T09:04:26.175Z,98394.09
2022-11-04T09:05:32.163Z,98400.81
2022-11-04T09:06:37.966Z,98405.72
2022-11-04T09:07:40.289Z,98405.28
2022-11-04T09:08:43.442Z,98405.94
2022-11-04T09:09:45.722Z,98409.03
2022-11-04T09:10:48.499Z,98402.81
2022-11-04T09:11:51.055Z,98406.97
2022-11-04T09:12:53.221Z,98406.97
2022-11-04T09:13:58.171Z,98404.75
2022-11-04T09:15:00.397Z,98402.91
2022-11-04T09:16:03.285Z,98407.91
2022-11-04T09:17:05.896Z,98414.44
2022-11-04T09:18:08.110Z,98414.47
2022-11-04T09:19:10.338Z,98414.44
2022-11-04T09:20:19.043Z,98413.81
2022-11-04T09:21:21.790Z,98418.28
2022-11-04T09:22:24.282Z,98423.56
2022-11-04T09:23:26.634Z,98420.66
2022-11-04T09:24:28.886Z,98423.53
2022-11-04T09:25:32.923Z,98430.44
2022-11-04T09:26:36.285Z,98434.59
2022-11-04T09:27:38.480Z,98436.22
2022-11-04T09:28:41.138Z,98435.41
2022-11-04T09:29:43.277Z,98437.34
2022-11-04T09:30:45.506Z,98447.41
2022-11-04T09:31:49.780Z,98442.41
2022-11-04T09:32:53.021Z,98440.16
2022-11-04T09:33:55.915Z,98457.81
2022-11-04T09:34:58.803Z,98453.00
2022-11-04T09:36:04.471Z,98454.28
2022-11-04T09:37:06.667Z,98447.66
2022-11-04T09:38:09.024Z,98449.63
2022-11-04T09:39:11.377Z,98454.56
2022-11-04T09:40:23.230Z,98452.84
2022-11-04T09:41:28.195Z,98460.78
2022-11-04T09:42:48.799Z,98459.59
2022-11-04T09:44:03.493Z,98450.38
2022-11-04T09:45:22.940Z,98452.78
2022-11-04T09:46:28.058Z,98458.13
2022-11-04T09:47:32.813Z,98459.03
2022-11-04T09:48:45.331Z,98464.63
2022-11-04T09:49:51.251Z,98463.03
2022-11-04T09:51:00.415Z,98466.22
2022-11-04T09:52:13.946Z,98464.53
2022-11-04T09:53:39.289Z,98456.59
2022-11-04T09:54:50.549Z,98455.38
2022-11-04T09:56:10.330Z,98460.63
2022-11-04T09:57:17.708Z,98455.50
2022-11-04T09:58:20.002Z,98457.84
2022-11-04T09:59:33.937Z,98460.44
2022-11-04T10:00:40.791Z,98458.22
2022-11-04T10:02:24.763Z,98458.69
2022-11-04T10:03:38.880Z,98455.13
2022-11-04T10:05:02.363Z,98453.44
2022-11-04T10:06:35.598Z,98452.63
2022-11-04T10:07:44.454Z,98455.56
2022-11-04T10:09:13.753Z,98452.56
2022-11-04T10:10:29.894Z,98448.66
2022-11-04T10:11:49.054Z,98452.53
2022-11-04T10:13:31.172Z,98450.75
2022-11-04T10:14:54.430Z,98453.44
2022-11-04T10:16:02.266Z,98440.66
2022-11-04T10:17:19.516Z,98448.22
2022-11-04T10:18:55.462Z,98455.28
2022-11-04T10:20:45.071Z,98448.97
2022-11-04T10:22:10.781Z,98448.69
2022-11-04T10:23:32.135Z,98436.63
2022-11-04T10:25:01.213Z,98427.84
2022-11-04T10:26:14.606Z,98435.44
2022-11-04T10:27:21.614Z,98432.63
2022-11-04T10:28:36.301Z,98440.91
2022-11-04T10:30:06.478Z,98440.31
2022-11-04T10:31:14.390Z,98446.28
2022-11-04T10:32:40.232Z,98445.59
2022-11-04T10:33:56.262Z,98451.88
2022-11-04T10:35:10.755Z,98435.88
2022-11-04T10:36:13.520Z,98441.72
2022-11-04T10:37:16.073Z,98429.72
2022-11-04T10:38:29.739Z,98439.06
2022-11-04T10:39:37.174Z,98440.13
2022-11-04T10:40:41.672Z,98436.09
2022-11-04T10:41:45.979Z,98434.09
2022-11-04T10:42:52.565Z,98431.91
2022-11-04T10:44:05.835Z,98438.78
2022-11-04T10:45:12.642Z,98433.13
2022-11-04T10:46:38.440Z,98430.84
2022-11-04T10:48:02.977Z,98425.91
2022-11-04T10:49:39.368Z,98431.84
2022-11-04T10:50:47.909Z,98423.59
2022-11-04T10:51:50.213Z,98430.34
2022-11-04T10:53:05.314Z,98425.69
2022-11-04T10:54:09.963Z,98430.84
2022-11-04T10:55:28.873Z,98425.06
2022-11-04T10:56:41.346Z,98436.28
2022-11-04T10:57:43.493Z,98432.41
2022-11-04T10:58:47.019Z,98432.81
2022-11-04T11:00:00.460Z,98438.41
2022-11-04T11:01:30.344Z,98426.47
2022-11-04T11:02:39.188Z,98436.63
2022-11-04T11:03:41.625Z,98435.41
2022-11-04T11:04:47.791Z,98433.53
2022-11-04T11:05:52.280Z,98432.28
2022-11-04T11:06:57.024Z,98427.81
2022-11-04T11:07:59.348Z,98428.19
2022-11-04T11:09:22.319Z,98425.84
2022-11-04T11:10:26.060Z,98432.19
2022-11-04T11:11:47.455Z,98423.41
2022-11-04T11:12:56.889Z,98420.84
2022-11-04T11:13:59.384Z,98420.84
2022-11-04T11:15:19.357Z,98424.25
2022-11-04T11:16:27.282Z,98428.84
2022-11-04T11:17:38.134Z,98428.31
2022-11-04T11:18:41.593Z,98429.22
2022-11-04T11:20:22.495Z,98423.50
2022-11-04T11:21:25.980Z,98424.91
2022-11-04T11:22:39.538Z,98425.44
2022-11-04T11:23:47.497Z,98414.59
2022-11-04T11:24:49.933Z,98420.06
2022-11-04T11:25:52.647Z,98418.59
2022-11-04T11:26:56.520Z,98416.13
2022-11-04T11:28:07.087Z,98412.50
2022-11-04T11:29:11.741Z,98407.53
2022-11-04T11:30:26.529Z,98415.44
2022-11-04T11:31:40.291Z,98413.06
2022-11-04T11:32:44.246Z,98412.72
2022-11-04T11:33:52.946Z,98410.06
2022-11-04T11:34:55.991Z,98409.16
2022-11-04T11:36:01.021Z,98411.56
2022-11-04T11:37:05.130Z,98418.19
2022-11-04T11:38:36.878Z,98403.03
2022-11-04T11:39:43.401Z,98405.34
2022-11-04T11:41:03.861Z,98406.50
2022-11-04T11:42:17.613Z,98398.16
2022-11-04T11:43:31.439Z,98385.06
2022-11-04T11:44:47.873Z,98397.13
2022-11-04T11:45:51.063Z,98392.31
2022-11-04T11:46:56.391Z,98392.94
2022-11-04T11:47:58.993Z,98386.16
2022-11-04T11:49:05.848Z,98387.00
2022-11-04T11:50:55.946Z,98389.09
2022-11-04T11:52:25.469Z,98388.66
2022-11-04T11:53:35.506Z,98386.63
2022-11-04T11:54:40.593Z,98382.66
2022-11-04T11:56:11.829Z,98377.06
2022-11-04T11:57:44.796Z,98382.28
2022-11-04T12:01:47.324Z,98370.75
2022-11-04T12:03:11.912Z,98374.81
2022-11-04T12:06:17.228Z,98373.34
2022-11-04T12:09:23.150Z,98378.25
2022-11-04T12:11:06.126Z,98371.06
2022-11-04T12:12:08.196Z,98371.56
2022-11-04T12:13:25.779Z,98362.91
2022-11-04T12:15:01.723Z,98372.06
2022-11-04T12:16:21.270Z,98374.94
2022-11-04T12:18:01.801Z,98373.16
2022-11-04T12:19:46.370Z,98371.25
2022-11-04T12:21:11.294Z,98371.50
2022-11-04T12:22:16.156Z,98379.75
2022-11-04T12:23:38.003Z,98381.94
2022-11-04T12:25:12.489Z,98381.69
2022-11-04T12:26:24.586Z,98374.78
2022-11-04T12:27:42.476Z,98385.47
2022-11-04T12:28:59.595Z,98377.94
2022-11-04T12:30:11.492Z,98385.53
2022-11-04T12:31:27.915Z,98381.91
2022-11-04T12:32:38.976Z,98381.00
2022-11-04T12:33:59.146Z,98382.66
2022-11-04T12:35:08.370Z,98385.56
2022-11-04T12:36:29.961Z,98388.63
2022-11-04T12:37:59.152Z,98385.50
2022-11-04T12:39:39.512Z,98391.16
2022-11-04T12:41:52.386Z,98390.06
2022-11-04T12:42:49.312Z,98387.09
2022-11-04T12:44:06.639Z,98383.31
2022-11-04T12:45:50.181Z,98387.97
2022-11-04T12:46:57.987Z,98388.13
2022-11-04T12:48:06.141Z,98392.22
2022-11-04T12:49:29.155Z,98393.31
2022-11-04T12:50:40.849Z,98396.31
2022-11-04T12:52:24.280Z,98390.31
2022-11-04T12:53:44.780Z,98393.47
2022-11-04T12:55:18.180Z,98408.34
2022-11-04T12:56:26.040Z,98404.63
2022-11-04T12:57:56.309Z,98407.00
2022-11-04T12:59:13.437Z,98405.59
2022-11-04T13:00:25.292Z,98404.69
2022-11-04T13:01:51.042Z,98407.41
2022-11-04T13:03:25.388Z,98409.13
2022-11-04T13:04:38.913Z,98408.94
2022-11-04T13:06:03.134Z,98406.78
2022-11-04T13:07:14.305Z,98410.16
2022-11-04T13:08:51.495Z,98404.38
2022-11-04T13:09:58.760Z,98418.09
2022-11-04T13:11:22.780Z,98403.44
2022-11-04T13:12:34.843Z,98410.94
2022-11-04T13:13:38.746Z,98412.03
2022-11-04T13:14:58.378Z,98411.66
2022-11-04T13:16:06.518Z,98416.75
2022-11-04T13:17:13.614Z,98415.41
2022-11-04T13:18:19.931Z,98420.91
2022-11-04T13:19:42.473Z,98414.00
2022-11-04T13:21:02.305Z,98424.69
2022-11-04T13:22:26.603Z,98415.63
2022-11-04T13:23:54.646Z,98420.66
2022-11-04T13:25:09.253Z,98419.69
2022-11-04T13:26:15.823Z,98432.03
2022-11-04T13:27:21.641Z,98426.19
2022-11-04T13:28:24.076Z,98426.69
2022-11-04T13:29:27.061Z,98427.03
2022-11-04T13:30:47.712Z,98437.28
2022-11-04T13:32:08.982Z,98437.91
2022-11-04T13:33:37.477Z,98441.88
2022-11-04T13:34:57.089Z,98447.69
2022-11-04T13:36:15.106Z,98439.63
2022-11-04T13:37:35.180Z,98446.22
2022-11-04T13:38:45.940Z,98435.16